sensor_id;sensor_type;location;lat;lon;timestamp;temperature;humidity
11320;DHT22;5715;48.234;14.320;2022-12-08T00:02:13;2.00;99.90
11320;DHT22;5715;48.234;14.320;2022-12-08T00:05:01;2.00;99.90
11320;DHT22;5715;48.234;14.320;2022-12-08T00:08:08;2.00;99.90
11320;DHT22;5715;48.234;14.320;2022-12-08T00:11:15;2.00;99.90
11320;DHT22;5715;48.234;14.320;2022-12-08T00:14:03;2.00;99.90
11320;DHT22;5715;48.234;14.320;2022-12-08T00:16:51;2.00;99.90
11320;DHT22;5715;48.234;14.320;2022-12-08T00:19:40;1.90;99.90
11320;DHT22;5715;48.234;14.320;2022-12-08T00:22:28;1.90;99.90
11320;DHT22;5715;48.234;14.320;2022-12-08T00:25:18;1.90;99.90
11320;DHT22;5715;48.234;14.320;2022-12-08T00:28:05;1.90;99.90
11320;DHT22;5715;48.234;14.320;2022-12-08T00:30:53;1.90;99.90
11320;DHT22;5715;48.234;14.320;2022-12-08T00:33:41;1.90;99.90
11320;DHT22;5715;48.234;14.320;2022-12-08T00:36:28;1.90;99.90
11320;DHT22;5715;48.234;14.320;2022-12-08T00:39:16;1.90;99.90
11320;DHT22;5715;48.234;14.320;2022-12-08T00:42:04;1.90;99.90
11320;DHT22;5715;48.234;14.320;2022-12-08T00:44:58;1.80;99.90
11320;DHT22;5715;48.234;14.320;2022-12-08T00:47:45;1.80;99.90
11320;DHT22;5715;48.234;14.320;2022-12-08T00:50:33;1.80;99.90
11320;DHT22;5715;48.234;14.320;2022-12-08T00:53:21;1.70;99.90
11320;DHT22;5715;48.234;14.320;2022-12-08T00:56:08;1.70;99.90
11320;DHT22;5715;48.234;14.320;2022-12-08T00:58:56;1.70;99.90
11320;DHT22;5715;48.234;14.320;2022-12-08T01:01:45;1.60;99.90
11320;DHT22;5715;48.234;14.320;2022-12-08T01:04:33;1.50;99.90
11320;DHT22;5715;48.234;14.320;2022-12-08T01:07:20;1.40;99.90
11320;DHT22;5715;48.234;14.320;2022-12-08T01:10:08;1.30;99.90
11320;DHT22;5715;48.234;14.320;2022-12-08T01:12:57;1.30;99.90
11320;DHT22;5715;48.234;14.320;2022-12-08T01:15:45;1.20;99.90
11320;DHT22;5715;48.234;14.320;2022-12-08T01:18:33;1.00;99.90
11320;DHT22;5715;48.234;14.320;2022-12-08T01:21:21;0.90;99.90
11320;DHT22;5715;48.234;14.320;2022-12-08T01:24:14;0.80;99.90
11320;DHT22;5715;48.234;14.320;2022-12-08T01:27:05;0.70;99.90
11320;DHT22;5715;48.234;14.320;2022-12-08T01:29:52;0.60;99.90
11320;DHT22;5715;48.234;14.320;2022-12-08T01:32:40;0.50;99.90
11320;DHT22;5715;48.234;14.320;2022-12-08T01:35:27;0.50;99.90
11320;DHT22;5715;48.234;14.320;2022-12-08T01:38:15;0.40;99.90
11320;DHT22;5715;48.234;14.320;2022-12-08T01:41:02;0.30;99.90
11320;DHT22;5715;48.234;14.320;2022-12-08T01:46:58;0.10;99.90
11320;DHT22;5715;48.234;14.320;2022-12-08T01:49:46;0.10;99.90
11320;DHT22;5715;48.234;14.320;2022-12-08T01:52:39;0.00;99.90
11320;DHT22;5715;48.234;14.320;2022-12-08T01:55:36;-0.10;99.90
11320;DHT22;5715;48.234;14.320;2022-12-08T01:58:28;0.00;99.90
11320;DHT22;5715;48.234;14.320;2022-12-08T02:01:20;-0.10;99.90
11320;DHT22;5715;48.234;14.320;2022-12-08T02:04:09;-0.20;99.90
11320;DHT22;5715;48.234;14.320;2022-12-08T02:06:57;-0.20;99.90
11320;DHT22;5715;48.234;14.320;2022-12-08T02:09:52;-0.30;99.90
11320;DHT22;5715;48.234;14.320;2022-12-08T02:12:42;-0.30;99.90
11320;DHT22;5715;48.234;14.320;2022-12-08T02:21:33;-0.40;99.90
11320;DHT22;5715;48.234;14.320;2022-12-08T02:25:02;-0.40;99.90
11320;DHT22;5715;48.234;14.320;2022-12-08T02:41:35;0.00;99.90
11320;DHT22;5715;48.234;14.320;2022-12-08T02:44:38;0.10;99.90
11320;DHT22;5715;48.234;14.320;2022-12-08T02:47:46;0.10;99.90
11320;DHT22;5715;48.234;14.320;2022-12-08T02:50:33;0.20;99.90
11320;DHT22;5715;48.234;14.320;2022-12-08T02:53:21;0.20;99.90
11320;DHT22;5715;48.234;14.320;2022-12-08T03:02:41;0.40;99.90
11320;DHT22;5715;48.234;14.320;2022-12-08T03:05:58;0.50;99.90
11320;DHT22;5715;48.234;14.320;2022-12-08T03:09:01;0.50;99.90
11320;DHT22;5715;48.234;14.320;2022-12-08T03:12:15;0.60;99.90
11320;DHT22;5715;48.234;14.320;2022-12-08T03:15:15;0.60;99.90
11320;DHT22;5715;48.234;14.320;2022-12-08T03:18:08;0.70;99.90
11320;DHT22;5715;48.234;14.320;2022-12-08T03:20:59;0.80;99.90
11320;DHT22;5715;48.234;14.320;2022-12-08T03:23:50;0.80;99.90
11320;DHT22;5715;48.234;14.320;2022-12-08T03:26:49;0.80;99.90
11320;DHT22;5715;48.234;14.320;2022-12-08T03:29:43;0.90;99.90
11320;DHT22;5715;48.234;14.320;2022-12-08T03:35:39;0.90;99.90
11320;DHT22;5715;48.234;14.320;2022-12-08T03:38:40;0.90;99.90
11320;DHT22;5715;48.234;14.320;2022-12-08T03:41:29;0.90;99.90
11320;DHT22;5715;48.234;14.320;2022-12-08T03:44:16;0.90;99.90
11320;DHT22;5715;48.234;14.320;2022-12-08T03:47:04;0.90;99.90
11320;DHT22;5715;48.234;14.320;2022-12-08T03:49:51;1.00;99.90
11320;DHT22;5715;48.234;14.320;2022-12-08T03:52:39;1.00;99.90
11320;DHT22;5715;48.234;14.320;2022-12-08T03:55:26;1.00;99.90
11320;DHT22;5715;48.234;14.320;2022-12-08T03:58:14;0.90;99.90
11320;DHT22;5715;48.234;14.320;2022-12-08T04:01:02;0.90;99.90
11320;DHT22;5715;48.234;14.320;2022-12-08T04:03:50;0.90;99.90
11320;DHT22;5715;48.234;14.320;2022-12-08T04:06:38;0.90;99.90
11320;DHT22;5715;48.234;14.320;2022-12-08T04:09:25;0.90;99.90
11320;DHT22;5715;48.234;14.320;2022-12-08T04:12:13;0.90;99.90
11320;DHT22;5715;48.234;14.320;2022-12-08T04:15:00;0.90;99.90
11320;DHT22;5715;48.234;14.320;2022-12-08T04:17:48;1.00;99.90
11320;DHT22;5715;48.234;14.320;2022-12-08T04:20:41;0.90;99.90
11320;DHT22;5715;48.234;14.320;2022-12-08T04:23:29;1.00;99.90
11320;DHT22;5715;48.234;14.320;2022-12-08T04:26:16;0.90;99.90
11320;DHT22;5715;48.234;14.320;2022-12-08T04:29:04;0.90;99.90
11320;DHT22;5715;48.234;14.320;2022-12-08T04:31:51;1.00;99.90
11320;DHT22;5715;48.234;14.320;2022-12-08T04:34:39;1.00;99.90
11320;DHT22;5715;48.234;14.320;2022-12-08T04:37:27;1.00;99.90
11320;DHT22;5715;48.234;14.320;2022-12-08T04:40:15;1.00;99.90
11320;DHT22;5715;48.234;14.320;2022-12-08T04:43:02;1.00;99.90
11320;DHT22;5715;48.234;14.320;2022-12-08T04:45:50;1.00;99.90
11320;DHT22;5715;48.234;14.320;2022-12-08T04:48:38;0.90;99.90
11320;DHT22;5715;48.234;14.320;2022-12-08T04:51:27;0.90;99.90
11320;DHT22;5715;48.234;14.320;2022-12-08T04:54:14;0.90;99.90
11320;DHT22;5715;48.234;14.320;2022-12-08T04:57:02;0.80;99.90
11320;DHT22;5715;48.234;14.320;2022-12-08T04:59:49;0.80;99.90
11320;DHT22;5715;48.234;14.320;2022-12-08T05:02:37;0.70;99.90
11320;DHT22;5715;48.234;14.320;2022-12-08T05:05:24;0.70;99.90
11320;DHT22;5715;48.234;14.320;2022-12-08T05:08:12;0.60;99.90
11320;DHT22;5715;48.234;14.320;2022-12-08T05:11:08;0.60;99.90
11320;DHT22;5715;48.234;14.320;2022-12-08T05:13:56;0.50;99.90
11320;DHT22;5715;48.234;14.320;2022-12-08T05:16:46;0.40;99.90
11320;DHT22;5715;48.234;14.320;2022-12-08T05:19:34;0.30;99.90
11320;DHT22;5715;48.234;14.320;2022-12-08T05:22:22;0.20;99.90
11320;DHT22;5715;48.234;14.320;2022-12-08T05:25:09;0.20;99.90
11320;DHT22;5715;48.234;14.320;2022-12-08T05:27:57;0.10;99.90
11320;DHT22;5715;48.234;14.320;2022-12-08T05:31:05;0.00;99.90
11320;DHT22;5715;48.234;14.320;2022-12-08T05:33:53;0.00;99.90
11320;DHT22;5715;48.234;14.320;2022-12-08T05:36:46;-0.10;99.90
11320;DHT22;5715;48.234;14.320;2022-12-08T05:39:34;-0.10;99.90
11320;DHT22;5715;48.234;14.320;2022-12-08T05:42:21;-0.20;99.90
11320;DHT22;5715;48.234;14.320;2022-12-08T05:45:11;-0.30;99.90
11320;DHT22;5715;48.234;14.320;2022-12-08T05:47:59;-0.30;99.90
11320;DHT22;5715;48.234;14.320;2022-12-08T05:50:47;-0.40;99.90
11320;DHT22;5715;48.234;14.320;2022-12-08T05:53:37;-0.50;99.90
11320;DHT22;5715;48.234;14.320;2022-12-08T05:56:25;-0.50;99.90
11320;DHT22;5715;48.234;14.320;2022-12-08T05:59:12;-0.60;99.90
11320;DHT22;5715;48.234;14.320;2022-12-08T06:02:00;-0.70;99.90
11320;DHT22;5715;48.234;14.320;2022-12-08T06:04:48;-0.70;99.90
11320;DHT22;5715;48.234;14.320;2022-12-08T06:07:35;-0.70;99.90
11320;DHT22;5715;48.234;14.320;2022-12-08T06:10:23;-0.80;99.90
11320;DHT22;5715;48.234;14.320;2022-12-08T06:13:10;-0.80;99.90
11320;DHT22;5715;48.234;14.320;2022-12-08T06:16:04;-0.90;99.90
11320;DHT22;5715;48.234;14.320;2022-12-08T06:18:54;-0.90;99.90
11320;DHT22;5715;48.234;14.320;2022-12-08T06:21:42;-1.00;99.90
11320;DHT22;5715;48.234;14.320;2022-12-08T06:24:29;-1.00;99.90
11320;DHT22;5715;48.234;14.320;2022-12-08T06:27:17;-1.00;99.90
11320;DHT22;5715;48.234;14.320;2022-12-08T06:30:05;-1.10;99.90
11320;DHT22;5715;48.234;14.320;2022-12-08T06:32:53;-1.10;99.90
11320;DHT22;5715;48.234;14.320;2022-12-08T06:35:41;-1.10;99.90
11320;DHT22;5715;48.234;14.320;2022-12-08T06:38:29;-1.20;99.90
11320;DHT22;5715;48.234;14.320;2022-12-08T06:41:17;-1.20;99.90
11320;DHT22;5715;48.234;14.320;2022-12-08T06:44:05;-1.20;99.90
11320;DHT22;5715;48.234;14.320;2022-12-08T06:46:52;-1.20;99.90
11320;DHT22;5715;48.234;14.320;2022-12-08T06:49:40;-1.10;99.90
11320;DHT22;5715;48.234;14.320;2022-12-08T06:52:27;-1.10;99.90
11320;DHT22;5715;48.234;14.320;2022-12-08T06:55:15;-1.10;99.90
11320;DHT22;5715;48.234;14.320;2022-12-08T06:58:22;-1.10;99.90
11320;DHT22;5715;48.234;14.320;2022-12-08T07:01:11;-1.00;99.90
11320;DHT22;5715;48.234;14.320;2022-12-08T07:03:59;-1.00;99.90
11320;DHT22;5715;48.234;14.320;2022-12-08T07:06:48;-1.00;99.90
11320;DHT22;5715;48.234;14.320;2022-12-08T07:09:36;-1.00;99.90
11320;DHT22;5715;48.234;14.320;2022-12-08T07:12:23;-1.00;99.90
11320;DHT22;5715;48.234;14.320;2022-12-08T07:15:11;-0.90;99.90
11320;DHT22;5715;48.234;14.320;2022-12-08T07:17:58;-0.90;99.90
11320;DHT22;5715;48.234;14.320;2022-12-08T07:20:46;-0.90;99.90
11320;DHT22;5715;48.234;14.320;2022-12-08T07:23:34;-0.90;99.90
11320;DHT22;5715;48.234;14.320;2022-12-08T07:26:22;-0.90;99.90
11320;DHT22;5715;48.234;14.320;2022-12-08T07:29:10;-0.90;99.90
11320;DHT22;5715;48.234;14.320;2022-12-08T07:31:58;-0.90;99.90
11320;DHT22;5715;48.234;14.320;2022-12-08T07:34:45;-0.80;99.90
11320;DHT22;5715;48.234;14.320;2022-12-08T07:37:34;-0.80;99.90
11320;DHT22;5715;48.234;14.320;2022-12-08T07:40:22;-0.80;99.90
11320;DHT22;5715;48.234;14.320;2022-12-08T07:43:09;-0.70;99.90
11320;DHT22;5715;48.234;14.320;2022-12-08T07:45:57;-0.60;99.90
11320;DHT22;5715;48.234;14.320;2022-12-08T07:48:45;-0.40;99.90
11320;DHT22;5715;48.234;14.320;2022-12-08T07:51:33;-0.30;99.90
11320;DHT22;5715;48.234;14.320;2022-12-08T07:54:20;-0.20;99.90
11320;DHT22;5715;48.234;14.320;2022-12-08T07:57:08;-0.10;99.90
11320;DHT22;5715;48.234;14.320;2022-12-08T07:59:55;0.00;99.90
11320;DHT22;5715;48.234;14.320;2022-12-08T08:02:43;0.10;99.90
11320;DHT22;5715;48.234;14.320;2022-12-08T08:05:30;0.20;99.90
11320;DHT22;5715;48.234;14.320;2022-12-08T08:08:18;0.40;99.90
11320;DHT22;5715;48.234;14.320;2022-12-08T08:11:06;0.50;99.90
11320;DHT22;5715;48.234;14.320;2022-12-08T08:14:05;0.60;99.90
11320;DHT22;5715;48.234;14.320;2022-12-08T08:16:52;0.70;99.90
11320;DHT22;5715;48.234;14.320;2022-12-08T08:19:40;0.80;99.90
11320;DHT22;5715;48.234;14.320;2022-12-08T08:22:28;1.00;99.90
11320;DHT22;5715;48.234;14.320;2022-12-08T08:25:16;1.10;99.90
11320;DHT22;5715;48.234;14.320;2022-12-08T08:28:04;1.20;99.90
11320;DHT22;5715;48.234;14.320;2022-12-08T08:30:52;1.30;99.90
11320;DHT22;5715;48.234;14.320;2022-12-08T08:33:40;1.40;99.90
11320;DHT22;5715;48.234;14.320;2022-12-08T08:36:27;1.50;99.90
11320;DHT22;5715;48.234;14.320;2022-12-08T08:39:15;1.60;99.90
11320;DHT22;5715;48.234;14.320;2022-12-08T08:42:03;1.70;99.90
11320;DHT22;5715;48.234;14.320;2022-12-08T08:44:50;1.80;99.90
11320;DHT22;5715;48.234;14.320;2022-12-08T08:47:38;1.90;99.90
11320;DHT22;5715;48.234;14.320;2022-12-08T08:50:26;2.00;99.90
11320;DHT22;5715;48.234;14.320;2022-12-08T08:53:20;2.10;99.90
11320;DHT22;5715;48.234;14.320;2022-12-08T08:56:16;2.20;99.90
11320;DHT22;5715;48.234;14.320;2022-12-08T08:59:05;2.30;99.90
11320;DHT22;5715;48.234;14.320;2022-12-08T09:01:54;2.40;99.90
11320;DHT22;5715;48.234;14.320;2022-12-08T09:04:41;2.50;99.90
11320;DHT22;5715;48.234;14.320;2022-12-08T09:07:30;2.60;99.90
11320;DHT22;5715;48.234;14.320;2022-12-08T09:10:17;2.50;99.90
11320;DHT22;5715;48.234;14.320;2022-12-08T09:13:05;2.50;99.90
11320;DHT22;5715;48.234;14.320;2022-12-08T09:15:52;2.60;99.90
11320;DHT22;5715;48.234;14.320;2022-12-08T09:18:40;2.60;99.90
11320;DHT22;5715;48.234;14.320;2022-12-08T09:21:27;2.70;99.90
11320;DHT22;5715;48.234;14.320;2022-12-08T09:24:15;2.70;99.90
11320;DHT22;5715;48.234;14.320;2022-12-08T09:27:03;2.80;99.90
11320;DHT22;5715;48.234;14.320;2022-12-08T09:29:50;3.00;99.90
11320;DHT22;5715;48.234;14.320;2022-12-08T09:32:38;3.10;99.90
11320;DHT22;5715;48.234;14.320;2022-12-08T09:35:25;3.20;99.90
11320;DHT22;5715;48.234;14.320;2022-12-08T09:38:13;3.30;99.90
11320;DHT22;5715;48.234;14.320;2022-12-08T09:41:03;3.30;99.90
11320;DHT22;5715;48.234;14.320;2022-12-08T09:47:23;3.40;99.90
11320;DHT22;5715;48.234;14.320;2022-12-08T09:50:53;3.40;99.90
11320;DHT22;5715;48.234;14.320;2022-12-08T09:53:48;3.40;99.90
11320;DHT22;5715;48.234;14.320;2022-12-08T09:56:38;3.50;99.90
11320;DHT22;5715;48.234;14.320;2022-12-08T09:59:30;3.50;99.90
11320;DHT22;5715;48.234;14.320;2022-12-08T10:02:25;3.50;99.90
11320;DHT22;5715;48.234;14.320;2022-12-08T10:05:15;3.50;99.90
11320;DHT22;5715;48.234;14.320;2022-12-08T10:08:24;3.50;99.90
11320;DHT22;5715;48.234;14.320;2022-12-08T10:11:22;3.60;99.90
11320;DHT22;5715;48.234;14.320;2022-12-08T10:14:43;3.60;99.90
11320;DHT22;5715;48.234;14.320;2022-12-08T10:17:45;3.60;99.90
11320;DHT22;5715;48.234;14.320;2022-12-08T10:20:37;3.70;99.90
11320;DHT22;5715;48.234;14.320;2022-12-08T10:23:35;3.80;99.90
11320;DHT22;5715;48.234;14.320;2022-12-08T10:26:26;3.90;99.90
11320;DHT22;5715;48.234;14.320;2022-12-08T10:29:14;4.00;99.90
11320;DHT22;5715;48.234;14.320;2022-12-08T10:32:13;4.10;99.90
11320;DHT22;5715;48.234;14.320;2022-12-08T10:35:14;4.20;99.90
11320;DHT22;5715;48.234;14.320;2022-12-08T10:38:04;4.30;99.90
11320;DHT22;5715;48.234;14.320;2022-12-08T10:41:14;4.50;99.90
11320;DHT22;5715;48.234;14.320;2022-12-08T10:44:08;4.60;99.90
11320;DHT22;5715;48.234;14.320;2022-12-08T10:46:56;4.80;99.90
11320;DHT22;5715;48.234;14.320;2022-12-08T10:49:44;4.90;99.90
11320;DHT22;5715;48.234;14.320;2022-12-08T10:52:31;4.90;99.90
11320;DHT22;5715;48.234;14.320;2022-12-08T10:55:26;5.00;99.90
11320;DHT22;5715;48.234;14.320;2022-12-08T10:58:37;5.00;99.90
11320;DHT22;5715;48.234;14.320;2022-12-08T11:01:33;5.00;99.90
11320;DHT22;5715;48.234;14.320;2022-12-08T11:04:33;4.90;99.90
11320;DHT22;5715;48.234;14.320;2022-12-08T11:07:22;4.80;99.90
11320;DHT22;5715;48.234;14.320;2022-12-08T11:10:16;4.70;99.90
11320;DHT22;5715;48.234;14.320;2022-12-08T11:13:14;4.60;99.90
11320;DHT22;5715;48.234;14.320;2022-12-08T11:16:06;4.60;99.90
11320;DHT22;5715;48.234;14.320;2022-12-08T11:18:55;4.60;99.90
11320;DHT22;5715;48.234;14.320;2022-12-08T11:21:45;4.60;99.90
11320;DHT22;5715;48.234;14.320;2022-12-08T11:24:34;4.50;99.90
11320;DHT22;5715;48.234;14.320;2022-12-08T11:27:23;4.60;99.90
11320;DHT22;5715;48.234;14.320;2022-12-08T11:30:19;4.60;99.90
11320;DHT22;5715;48.234;14.320;2022-12-08T11:33:26;4.70;99.90
11320;DHT22;5715;48.234;14.320;2022-12-08T11:36:14;4.70;99.90
11320;DHT22;5715;48.234;14.320;2022-12-08T11:39:03;4.80;99.90
11320;DHT22;5715;48.234;14.320;2022-12-08T11:41:52;4.90;99.90
11320;DHT22;5715;48.234;14.320;2022-12-08T11:45:02;5.00;99.90
11320;DHT22;5715;48.234;14.320;2022-12-08T11:54:54;5.30;99.90
11320;DHT22;5715;48.234;14.320;2022-12-08T11:57:49;5.30;99.90
11320;DHT22;5715;48.234;14.320;2022-12-08T12:00:38;5.30;99.90
11320;DHT22;5715;48.234;14.320;2022-12-08T12:03:40;5.40;99.90
11320;DHT22;5715;48.234;14.320;2022-12-08T12:10:10;5.50;99.90
11320;DHT22;5715;48.234;14.320;2022-12-08T12:19:51;5.70;99.90
11320;DHT22;5715;48.234;14.320;2022-12-08T12:22:41;5.70;99.90
11320;DHT22;5715;48.234;14.320;2022-12-08T12:25:34;5.60;99.90
11320;DHT22;5715;48.234;14.320;2022-12-08T12:28:25;5.60;99.90
11320;DHT22;5715;48.234;14.320;2022-12-08T12:31:21;5.50;99.90
11320;DHT22;5715;48.234;14.320;2022-12-08T12:34:16;5.50;99.90
11320;DHT22;5715;48.234;14.320;2022-12-08T12:37:21;5.50;99.90
11320;DHT22;5715;48.234;14.320;2022-12-08T12:40:23;5.50;99.90
11320;DHT22;5715;48.234;14.320;2022-12-08T12:43:27;5.50;99.90
11320;DHT22;5715;48.234;14.320;2022-12-08T12:52:36;5.40;99.90
11320;DHT22;5715;48.234;14.320;2022-12-08T12:55:26;5.50;99.90
11320;DHT22;5715;48.234;14.320;2022-12-08T13:01:36;5.40;99.90
11320;DHT22;5715;48.234;14.320;2022-12-08T13:04:35;5.40;99.90
11320;DHT22;5715;48.234;14.320;2022-12-08T13:07:30;5.40;99.90
11320;DHT22;5715;48.234;14.320;2022-12-08T13:10:57;5.40;99.90
11320;DHT22;5715;48.234;14.320;2022-12-08T13:14:00;5.40;99.90
11320;DHT22;5715;48.234;14.320;2022-12-08T13:16:53;5.40;99.90
11320;DHT22;5715;48.234;14.320;2022-12-08T13:19:44;5.40;99.90
11320;DHT22;5715;48.234;14.320;2022-12-08T13:25:48;5.40;99.90
11320;DHT22;5715;48.234;14.320;2022-12-08T13:31:59;5.30;99.90
11320;DHT22;5715;48.234;14.320;2022-12-08T13:37:43;5.30;99.90
11320;DHT22;5715;48.234;14.320;2022-12-08T13:40:41;5.30;99.90
11320;DHT22;5715;48.234;14.320;2022-12-08T13:43:34;5.20;99.90
11320;DHT22;5715;48.234;14.320;2022-12-08T13:46:53;5.20;99.90
11320;DHT22;5715;48.234;14.320;2022-12-08T13:50:14;5.10;99.90
11320;DHT22;5715;48.234;14.320;2022-12-08T13:53:37;5.10;99.90
11320;DHT22;5715;48.234;14.320;2022-12-08T13:56:47;5.00;99.90
11320;DHT22;5715;48.234;14.320;2022-12-08T14:00:13;5.00;99.90
11320;DHT22;5715;48.234;14.320;2022-12-08T14:03:03;4.90;99.90
11320;DHT22;5715;48.234;14.320;2022-12-08T14:05:51;4.80;99.90
11320;DHT22;5715;48.234;14.320;2022-12-08T14:09:02;4.80;99.90
11320;DHT22;5715;48.234;14.320;2022-12-08T14:12:05;4.70;99.90
11320;DHT22;5715;48.234;14.320;2022-12-08T14:15:13;4.60;99.90
11320;DHT22;5715;48.234;14.320;2022-12-08T14:18:02;4.60;99.90
11320;DHT22;5715;48.234;14.320;2022-12-08T14:21:04;4.40;99.90
11320;DHT22;5715;48.234;14.320;2022-12-08T14:24:09;4.40;99.90
11320;DHT22;5715;48.234;14.320;2022-12-08T14:27:00;4.30;99.90
11320;DHT22;5715;48.234;14.320;2022-12-08T14:29:55;4.30;99.90
11320;DHT22;5715;48.234;14.320;2022-12-08T14:32:51;4.20;99.90
11320;DHT22;5715;48.234;14.320;2022-12-08T14:35:41;4.10;99.90
11320;DHT22;5715;48.234;14.320;2022-12-08T14:38:29;4.00;99.90
11320;DHT22;5715;48.234;14.320;2022-12-08T14:41:24;3.90;99.90
11320;DHT22;5715;48.234;14.320;2022-12-08T14:44:23;3.80;99.90
11320;DHT22;5715;48.234;14.320;2022-12-08T14:47:17;3.70;99.90
11320;DHT22;5715;48.234;14.320;2022-12-08T14:50:36;3.60;99.90
11320;DHT22;5715;48.234;14.320;2022-12-08T14:53:38;3.50;99.90
11320;DHT22;5715;48.234;14.320;2022-12-08T14:57:10;3.30;99.90
11320;DHT22;5715;48.234;14.320;2022-12-08T14:59:41;3.20;99.90
11320;DHT22;5715;48.234;14.320;2022-12-08T15:02:30;3.00;99.90
11320;DHT22;5715;48.234;14.320;2022-12-08T15:05:19;2.90;99.90
11320;DHT22;5715;48.234;14.320;2022-12-08T15:08:09;2.70;99.90
11320;DHT22;5715;48.234;14.320;2022-12-08T15:14:35;2.40;99.90
11320;DHT22;5715;48.234;14.320;2022-12-08T15:17:48;2.30;99.90
11320;DHT22;5715;48.234;14.320;2022-12-08T15:23:27;2.00;99.90
11320;DHT22;5715;48.234;14.320;2022-12-08T15:26:22;1.90;99.90
11320;DHT22;5715;48.234;14.320;2022-12-08T15:29:27;1.70;99.90
11320;DHT22;5715;48.234;14.320;2022-12-08T15:32:19;1.60;99.90
11320;DHT22;5715;48.234;14.320;2022-12-08T15:35:14;1.50;99.90
11320;DHT22;5715;48.234;14.320;2022-12-08T15:38:02;1.40;99.90
11320;DHT22;5715;48.234;14.320;2022-12-08T15:40:51;1.30;99.90
11320;DHT22;5715;48.234;14.320;2022-12-08T15:43:40;1.20;99.90
11320;DHT22;5715;48.234;14.320;2022-12-08T15:46:27;1.10;99.90
11320;DHT22;5715;48.234;14.320;2022-12-08T15:49:17;1.00;99.90
11320;DHT22;5715;48.234;14.320;2022-12-08T15:52:12;0.90;99.90
11320;DHT22;5715;48.234;14.320;2022-12-08T15:55:02;0.80;99.90
11320;DHT22;5715;48.234;14.320;2022-12-08T15:57:52;0.70;99.90
11320;DHT22;5715;48.234;14.320;2022-12-08T16:01:00;0.60;99.90
11320;DHT22;5715;48.234;14.320;2022-12-08T16:03:48;0.50;99.90
11320;DHT22;5715;48.234;14.320;2022-12-08T16:06:56;0.50;99.90
11320;DHT22;5715;48.234;14.320;2022-12-08T16:10:04;0.40;99.90
11320;DHT22;5715;48.234;14.320;2022-12-08T16:12:54;0.30;99.90
11320;DHT22;5715;48.234;14.320;2022-12-08T16:16:28;0.30;99.90
11320;DHT22;5715;48.234;14.320;2022-12-08T16:19:16;0.20;99.90
11320;DHT22;5715;48.234;14.320;2022-12-08T16:22:03;0.10;99.90
11320;DHT22;5715;48.234;14.320;2022-12-08T16:25:11;0.10;99.90
11320;DHT22;5715;48.234;14.320;2022-12-08T16:28:08;0.00;99.90
11320;DHT22;5715;48.234;14.320;2022-12-08T16:31:16;0.00;99.90
11320;DHT22;5715;48.234;14.320;2022-12-08T16:34:09;0.00;99.90
11320;DHT22;5715;48.234;14.320;2022-12-08T16:36:56;0.10;99.90
11320;DHT22;5715;48.234;14.320;2022-12-08T16:39:44;0.00;99.90
11320;DHT22;5715;48.234;14.320;2022-12-08T16:42:33;0.00;99.90
11320;DHT22;5715;48.234;14.320;2022-12-08T16:45:28;0.00;99.90
11320;DHT22;5715;48.234;14.320;2022-12-08T16:48:16;0.00;99.90
11320;DHT22;5715;48.234;14.320;2022-12-08T16:51:04;0.00;99.90
11320;DHT22;5715;48.234;14.320;2022-12-08T16:53:56;0.00;99.90
11320;DHT22;5715;48.234;14.320;2022-12-08T16:56:44;-0.10;99.90
11320;DHT22;5715;48.234;14.320;2022-12-08T16:59:32;-0.10;99.90
11320;DHT22;5715;48.234;14.320;2022-12-08T17:02:19;-0.20;99.90
11320;DHT22;5715;48.234;14.320;2022-12-08T17:05:07;-0.20;99.90
11320;DHT22;5715;48.234;14.320;2022-12-08T17:07:59;-0.20;99.90
11320;DHT22;5715;48.234;14.320;2022-12-08T17:10:47;-0.20;99.90
11320;DHT22;5715;48.234;14.320;2022-12-08T17:13:53;-0.20;99.90
11320;DHT22;5715;48.234;14.320;2022-12-08T17:16:41;-0.30;99.90
11320;DHT22;5715;48.234;14.320;2022-12-08T17:19:30;-0.30;99.90
11320;DHT22;5715;48.234;14.320;2022-12-08T17:22:18;-0.40;99.90
11320;DHT22;5715;48.234;14.320;2022-12-08T17:25:06;-0.50;99.90
11320;DHT22;5715;48.234;14.320;2022-12-08T17:27:54;-0.50;99.90
11320;DHT22;5715;48.234;14.320;2022-12-08T17:30:42;-0.50;99.90
11320;DHT22;5715;48.234;14.320;2022-12-08T17:33:30;-0.50;99.90
11320;DHT22;5715;48.234;14.320;2022-12-08T17:36:17;-0.60;99.90
11320;DHT22;5715;48.234;14.320;2022-12-08T17:39:05;-0.60;99.90
11320;DHT22;5715;48.234;14.320;2022-12-08T17:42:00;-0.60;99.90
11320;DHT22;5715;48.234;14.320;2022-12-08T17:44:48;-0.70;99.90
11320;DHT22;5715;48.234;14.320;2022-12-08T17:47:36;-0.70;99.90
11320;DHT22;5715;48.234;14.320;2022-12-08T17:50:24;-0.80;99.90
11320;DHT22;5715;48.234;14.320;2022-12-08T17:53:12;-0.70;99.90
11320;DHT22;5715;48.234;14.320;2022-12-08T17:56:00;-0.60;99.90
11320;DHT22;5715;48.234;14.320;2022-12-08T17:58:48;-0.70;99.90
11320;DHT22;5715;48.234;14.320;2022-12-08T18:01:40;-0.70;99.90
11320;DHT22;5715;48.234;14.320;2022-12-08T18:04:28;-0.80;99.90
11320;DHT22;5715;48.234;14.320;2022-12-08T18:07:16;-0.80;99.90
11320;DHT22;5715;48.234;14.320;2022-12-08T18:10:04;-0.90;99.90
11320;DHT22;5715;48.234;14.320;2022-12-08T18:12:53;-1.00;99.90
11320;DHT22;5715;48.234;14.320;2022-12-08T18:15:41;-1.00;99.90
11320;DHT22;5715;48.234;14.320;2022-12-08T18:18:28;-1.00;99.90
11320;DHT22;5715;48.234;14.320;2022-12-08T18:21:16;-0.90;99.90
11320;DHT22;5715;48.234;14.320;2022-12-08T18:24:19;-1.00;99.90
11320;DHT22;5715;48.234;14.320;2022-12-08T18:27:08;-1.00;99.90
11320;DHT22;5715;48.234;14.320;2022-12-08T18:29:56;-1.10;99.90
11320;DHT22;5715;48.234;14.320;2022-12-08T18:32:44;-1.00;99.90
11320;DHT22;5715;48.234;14.320;2022-12-08T18:35:32;-1.10;99.90
11320;DHT22;5715;48.234;14.320;2022-12-08T18:38:20;-1.10;99.90
11320;DHT22;5715;48.234;14.320;2022-12-08T18:41:11;-1.20;99.90
11320;DHT22;5715;48.234;14.320;2022-12-08T18:43:59;-1.20;99.90
11320;DHT22;5715;48.234;14.320;2022-12-08T18:46:47;-1.20;99.90
11320;DHT22;5715;48.234;14.320;2022-12-08T18:49:35;-1.20;99.90
11320;DHT22;5715;48.234;14.320;2022-12-08T18:52:22;-1.30;99.90
11320;DHT22;5715;48.234;14.320;2022-12-08T18:55:18;-1.30;99.90
11320;DHT22;5715;48.234;14.320;2022-12-08T18:58:05;-1.40;99.90
11320;DHT22;5715;48.234;14.320;2022-12-08T19:00:53;-1.40;99.90
11320;DHT22;5715;48.234;14.320;2022-12-08T19:03:40;-1.40;99.90
11320;DHT22;5715;48.234;14.320;2022-12-08T19:06:44;-1.50;99.90
11320;DHT22;5715;48.234;14.320;2022-12-08T19:09:32;-1.50;99.90
11320;DHT22;5715;48.234;14.320;2022-12-08T19:12:19;-1.50;99.90
11320;DHT22;5715;48.234;14.320;2022-12-08T19:15:07;-1.50;99.90
11320;DHT22;5715;48.234;14.320;2022-12-08T19:17:55;-1.50;99.90
11320;DHT22;5715;48.234;14.320;2022-12-08T19:20:43;-1.50;99.90
11320;DHT22;5715;48.234;14.320;2022-12-08T19:23:31;-1.50;99.90
11320;DHT22;5715;48.234;14.320;2022-12-08T19:26:19;-1.50;99.90
11320;DHT22;5715;48.234;14.320;2022-12-08T19:29:07;-1.50;99.90
11320;DHT22;5715;48.234;14.320;2022-12-08T19:31:55;-1.50;99.90
11320;DHT22;5715;48.234;14.320;2022-12-08T19:34:42;-1.60;99.90
11320;DHT22;5715;48.234;14.320;2022-12-08T19:37:30;-1.60;99.90
11320;DHT22;5715;48.234;14.320;2022-12-08T19:40:17;-1.60;99.90